21kousinmaru — JD2168 — position and weather

sailwx.info

Track history (hours):
 
Tides and Currents Weather Stations Pressure Air Temp Water Temp Dewpoint Dewpoint Depression Visibility Wind Speed Wind Dir Waves Ship Positions

21kousinmaru

Last reported at 2015-Mar-25 21:32 UTC. Time now 2015-Mar-26 19:12 UTC.
Position N 34°10' E 135°00'.

Length 68 m; draft 4.5 m.

MMSI: 431501835.

Date/timePositionNaut miles runAvg speedWind from/ knotsBaromVisibWave heightAir tempDewpointWater temp
2015-Mar-25 21:32N 34°10' E 135°00'1512.9
2015-Mar-25 20:20N 34°26' E 135°01'1012.6
2015-Mar-25 19:33N 34°36' E 135°03'235 5.9
2015-Mar-24 03:34N 33°50' E 130°24'1111.2
2015-Mar-24 02:33N 33°40' E 130°17'7 6.9
2015-Mar-24 01:33N 33°37' E 130°25'0 0.0
2015-Mar-24 00:32N 33°37' E 130°25'0 0.0
2015-Mar-23 23:32N 33°37' E 130°25'3 2.6
2015-Mar-23 22:33N 33°37' E 130°22'9 8.7
2015-Mar-23 21:33N 33°44' E 130°15'  
Track history (hours):
 
Tides and Currents Weather Stations Pressure Air Temp Water Temp Dewpoint Dewpoint Depression Visibility Wind Speed Wind Dir Waves Ship Positions

21kousinmaru

Last reported at 2015-Mar-25 21:32 UTC. Time now 2015-Mar-26 19:12 UTC.
Position N 34°10' E 135°00'.

Length 68 m; draft 4.5 m.

MMSI: 431501835.

Date/timePositionNaut miles runAvg speedWind from/ knotsBaromVisibWave heightAir tempDewpointWater temp
2015-Mar-25 21:32N 34°10' E 135°00'1512.9
2015-Mar-25 20:20N 34°26' E 135°01'1012.6
2015-Mar-25 19:33N 34°36' E 135°03'235 5.9
2015-Mar-24 03:34N 33°50' E 130°24'1111.2
2015-Mar-24 02:33N 33°40' E 130°17'7 6.9
2015-Mar-24 01:33N 33°37' E 130°25'0 0.0
2015-Mar-24 00:32N 33°37' E 130°25'0 0.0
2015-Mar-23 23:32N 33°37' E 130°25'3 2.6
2015-Mar-23 22:33N 33°37' E 130°22'9 8.7
2015-Mar-23 21:33N 33°44' E 130°15'  

Dump ship's entire track history